Terminal Aerodrome Forecast
Issued by NWS Duluth, MN

Home | Current Version | Previous Version | Text Only | Print | Product List | Glossary On
Versions: 1 2 3 4 5 6 7 8 9 10 11 12 13 14 15 16 17 18 19 20 21 22 23 24 25 26 27 28 29
000
FTUS43 KDLH 030500
TAFINL
TAF
KINL 030527Z 0306/0406 19010G20KT P6SM OVC080
     FM031000 19012KT 6SM -SN SCT025 OVC050
      TEMPO 0310/0312 3SM -SN BKN025
     FM031200 23008KT 2SM -SN OVC015
     FM031600 29012G22KT 5SM -SN BLSN OVC025
     FM032000 31016G28KT 6SM BLSN OVC030=

USA.gov is the U.S. government's official web portal to all federal, state and local government web resources and services.